Time;durP1;ratioP1;P1;durP2;ratioP2;P2;SDS_P1;SDS_P2;PMS_P1;PMS_P2;Temp;Humidity;BMP_temperature;BMP_pressure;BME280_temperature;BME280_humidity;BME280_pressure;Samples;Min_cycle;Max_cycle;Signal;HPM_P1;HPM_P2
2022/12/07 06:22:36;;;;;;;12.48;5.32;;;;;;;-1.32;100.00;101235.44;6127176;23;20397;-95
2022/12/07 06:27:43;;;;;;;17.15;5.63;;;;;;;-1.38;100.00;101260.72;6043052;23;20331;-96
2022/12/07 06:30:09;;;;;;;13.20;6.10;;;;;;;-1.38;100.00;101263.25;6015511;23;20045;-93
2022/12/07 06:32:54;;;;;;;;;;;;;;;;;;;;;
2022/12/07 06:35:25;;;;;;;15.75;5.22;;;;;;;-1.61;100.00;101242.03;6093875;23;20022;-95
2022/12/07 06:38:13;;;;;;;12.70;4.80;;;;;;;-1.74;100.00;101229.31;6079995;23;20002;-96
2022/12/07 06:40:50;;;;;;;7.60;4.53;;;;;;;-1.68;100.00;101227.66;6076248;23;20002;-95
2022/12/07 06:43:30;;;;;;;18.42;5.05;;;;;;;-1.58;100.00;101232.78;6100323;23;20006;-96
2022/12/07 06:49:08;;;;;;;13.50;5.55;;;;;;;-1.57;100.00;101231.09;6086996;23;20018;-96
2022/12/07 06:52:04;;;;;;;;;;;;;;;-1.42;100.00;101266.59;6103445;23;20007;-94
2022/12/07 06:55:53;;;;;;;;;;;;;;;;;;;;;
2022/12/07 07:25:03;;;;;;;;;;;;;;;;;;;;;
2022/12/07 07:32:15;;;;;;;14.82;5.55;;;;;;;-1.95;100.00;101257.88;5804930;24;20015;-96
2022/12/07 07:43:04;;;;;;;;;;;;;;;;;;;;;
2022/12/07 08:23:39;;;;;;;16.58;7.80;;;;;;;-1.66;100.00;101271.53;6160560;23;20436;-96
2022/12/07 08:27:10;;;;;;;14.70;7.10;;;;;;;-1.38;100.00;101302.94;6143317;23;20010;-96
2022/12/07 08:30:44;;;;;;;;;;;;;;;;;;;;;
2022/12/07 08:39:55;;;;;;;31.55;15.32;;;;;;;-1.85;100.00;101281.56;6106196;23;20006;-96
2022/12/07 10:03:48;;;;;;;17.88;12.13;;;;;;;3.65;95.71;101266.56;6095958;23;20450;-95
2022/12/07 10:06:14;;;;;;;26.40;12.85;;;;;;;3.57;90.14;101263.28;6074281;23;20010;-94
2022/12/07 10:08:43;;;;;;;23.83;12.75;;;;;;;3.55;90.00;101290.56;6101313;23;20013;-96
2022/12/07 10:11:10;;;;;;;16.13;11.45;;;;;;;3.42;90.63;101265.22;6102096;23;20034;-94
2022/12/07 10:13:46;;;;;;;22.88;10.95;;;;;;;3.63;86.87;101284.47;6100272;23;20010;-93
2022/12/07 10:16:27;;;;;;;18.48;12.10;;;;;;;3.88;87.15;101290.88;6101081;23;20041;-94
2022/12/07 10:18:54;;;;;;;37.45;15.55;;;;;;;3.25;84.47;101244.19;6077497;23;20066;-94
2022/12/07 10:21:25;;;;;;;29.23;14.88;;;;;;;3.70;86.83;101276.72;6100047;23;20006;-93
2022/12/07 10:24:04;;;;;;;23.25;12.13;;;;;;;3.48;85.86;101265.97;6099954;23;19998;-93
2022/12/07 10:26:40;;;;;;;17.95;10.07;;;;;;;3.10;88.35;101239.31;6099146;23;20013;-95
2022/12/07 10:29:17;;;;;;;20.50;9.95;;;;;;;3.17;88.55;101279.16;6099572;23;20010;-94
2022/12/07 10:31:45;;;;;;;16.90;11.35;;;;;;;3.04;87.83;101254.69;6075957;23;20449;-93
2022/12/07 10:34:34;;;;;;;20.30;11.48;;;;;;;3.08;88.66;101238.50;6099959;23;20006;-93
2022/12/07 10:37:12;;;;;;;27.67;12.07;;;;;;;3.33;86.89;101265.34;6099585;23;20007;-94
2022/12/07 10:39:57;;;;;;;21.60;11.50;;;;;;;3.55;86.31;101222.47;6076062;23;20006;-93
2022/12/07 10:42:31;;;;;;;19.08;10.98;;;;;;;4.47;83.50;101250.69;6100236;23;20085;-93
2022/12/07 10:45:12;;;;;;;21.48;9.85;;;;;;;5.05;79.66;101251.22;6099826;23;20033;-94
2022/12/07 10:48:04;;;;;;;15.10;9.57;;;;;;;4.65;80.46;101237.53;6076316;23;20010;-95
2022/12/07 10:50:59;;;;;;;17.27;10.15;;;;;;;5.66;75.45;101238.75;6076621;23;20003;-91
2022/12/07 10:53:46;;;;;;;13.27;8.85;;;;;;;5.70;77.53;101235.22;6075826;23;20414;-94
2022/12/07 10:56:30;;;;;;;14.50;8.95;;;;;;;5.85;75.35;101229.72;6077741;23;20006;-96
2022/12/07 10:59:22;;;;;;;15.77;8.70;;;;;;;5.95;74.74;101215.84;6075819;23;20021;-95
2022/12/07 11:02:25;;;;;;;19.38;9.65;;;;;;;5.47;75.56;101187.97;6080504;23;20014;-96
2022/12/07 11:05:06;;;;;;;11.73;7.60;;;;;;;6.51;73.18;101214.34;6085294;23;20021;-96
2022/12/07 11:07:45;;;;;;;10.38;8.02;;;;;;;7.48;69.48;101184.03;6104456;23;20017;-96
2022/12/07 11:10:22;;;;;;;16.48;7.80;;;;;;;7.53;69.07;101210.41;6104883;23;20444;-95
2022/12/07 11:13:17;;;;;;;9.10;3.35;;;;;;;7.45;67.24;101184.13;6104078;23;20030;-94
2022/12/07 11:15:53;;;;;;;4.03;2.60;;;;;;;8.57;63.37;101188.81;6104997;23;20006;-96
2022/12/07 11:18:39;;;;;;;6.80;2.17;;;;;;;8.30;61.54;101179.50;6103839;23;20002;-95
2022/12/07 11:21:24;;;;;;;7.65;2.30;;;;;;;10.27;56.85;101183.66;6104304;23;20006;-94
2022/12/07 11:24:02;;;;;;;6.13;2.85;;;;;;;11.97;51.46;101179.94;6103867;23;20013;-95
2022/12/07 11:26:39;;;;;;;5.63;2.65;;;;;;;12.12;48.99;101192.97;6103356;23;20042;-93
2022/12/07 11:29:32;;;;;;;8.15;3.33;;;;;;;12.23;48.65;101197.59;6104922;23;20049;-95
2022/12/07 11:32:01;;;;;;;7.43;2.67;;;;;;;13.17;49.40;101189.03;6103338;23;20040;-94
2022/12/07 11:34:51;;;;;;;11.10;5.95;;;;;;;13.03;48.30;101188.97;6103114;23;20006;-95
2022/12/07 11:37:34;;;;;;;8.98;5.40;;;;;;;12.38;49.22;101169.13;6104256;23;20006;-94
2022/12/07 11:40:05;;;;;;;8.85;5.25;;;;;;;11.43;51.04;101176.56;6104359;23;20006;-96
2022/12/07 11:42:39;;;;;;;8.95;5.00;;;;;;;10.52;54.47;101155.94;6103353;23;20010;-95
2022/12/07 11:45:14;;;;;;;12.63;7.55;;;;;;;9.92;55.26;101177.44;6103451;23;20038;-95
2022/12/07 11:48:03;;;;;;;17.13;7.18;;;;;;;9.65;57.17;101180.28;6104252;23;20006;-95
2022/12/07 11:50:44;;;;;;;15.05;9.13;;;;;;;9.16;59.18;101171.13;6102244;23;20002;-94
2022/12/07 11:53:27;;;;;;;12.35;5.07;;;;;;;8.31;61.63;101171.72;6103376;23;20010;-94
2022/12/07 11:55:58;;;;;;;10.27;5.60;;;;;;;8.03;62.28;101138.47;6103071;23;20074;-93
2022/12/07 11:58:48;;;;;;;8.57;5.80;;;;;;;7.85;64.79;101167.38;6102285;23;20085;-93
2022/12/07 12:01:16;;;;;;;15.82;8.68;;;;;;;7.40;66.34;101168.03;6103334;23;20017;-95
2022/12/07 12:04:11;;;;;;;14.25;6.95;;;;;;;7.18;66.17;101144.78;6103103;23;20448;-96
2022/12/07 12:06:39;;;;;;;11.80;3.92;;;;;;;7.02;66.55;101137.56;6052864;23;20007;-94
2022/12/07 12:09:09;;;;;;;10.20;5.53;;;;;;;7.14;66.57;101156.03;6128108;23;19998;-94
2022/12/07 12:15:35;;;;;;;7.15;3.38;;;;;;;6.72;67.12;101157.28;6106771;23;20049;-95
2022/12/07 12:18:12;;;;;;;11.45;4.32;;;;;;;5.76;69.78;101132.63;6104785;23;20010;-94
2022/12/07 12:20:46;;;;;;;9.63;4.40;;;;;;;6.11;69.02;101146.22;6104386;23;20029;-94
2022/12/07 12:23:45;;;;;;;14.18;4.78;;;;;;;6.25;69.60;101143.28;6104120;23;20002;-94
2022/12/07 12:27:06;;;;;;;11.98;4.53;;;;;;;5.89;70.14;101116.03;6106307;23;20016;-94
2022/12/07 12:30:15;;;;;;;9.05;4.45;;;;;;;5.73;71.46;101101.94;6048273;23;20509;-96
2022/12/07 12:45:16;;;;;;;8.13;3.40;;;;;;;5.38;73.61;101126.75;6071837;23;20007;-95
2022/12/07 12:54:59;;;;;;;11.63;5.10;;;;;;;5.19;75.48;101108.44;5960710;24;20099;-96
2022/12/07 13:06:11;;;;;;;13.13;5.22;;;;;;;4.81;76.37;101056.50;6079552;23;20025;-96
2022/12/07 13:08:42;;;;;;;12.30;5.07;;;;;;;4.61;77.67;101051.84;6050071;23;20027;-95
2022/12/07 13:11:56;;;;;;;8.93;4.65;;;;;;;4.45;79.34;101065.84;6072024;23;20007;-95
2022/12/07 13:14:49;;;;;;;;;;;;;;;;;;;;;
2022/12/07 13:17:44;;;;;;;15.27;4.35;;;;;;;4.65;78.39;101079.00;6076931;23;20015;-94
2022/12/07 13:20:45;;;;;;;11.30;4.72;;;;;;;4.50;78.40;101059.75;6051955;23;20446;-96
2022/12/07 13:23:13;;;;;;;10.52;4.55;;;;;;;4.36;79.43;101040.47;6049006;23;20041;-96
2022/12/07 13:25:53;;;;;;;16.25;4.38;;;;;;;4.24;78.80;101037.34;6072547;23;20003;-96
2022/12/07 13:28:22;;;;;;;11.02;4.22;;;;;;;4.19;79.75;101028.91;6048012;23;20074;-96
2022/12/07 13:31:00;;;;;;;5.93;3.42;;;;;;;4.16;79.70;101018.75;6072814;23;20010;-95
2022/12/07 13:33:54;;;;;;;8.20;4.05;;;;;;;4.20;78.92;101022.94;6072225;23;20040;-95
2022/12/07 13:37:13;;;;;;;;;;;;;;;;;;;;;
2022/12/07 13:39:57;;;;;;;10.05;2.92;;;;;;;4.01;78.98;101011.41;6072470;23;20022;-94
2022/12/07 13:42:28;;;;;;;11.70;4.13;;;;;;;4.14;78.70;101004.34;6070757;23;20011;-93
2022/12/07 13:44:55;;;;;;;12.88;3.10;;;;;;;4.10;78.77;101018.91;6068380;23;20026;-94
2022/12/07 13:47:39;;;;;;;7.85;3.42;;;;;;;4.17;79.30;101035.78;6069408;23;20007;-92
2022/12/07 13:50:34;;;;;;;8.77;3.00;;;;;;;3.87;80.54;100996.38;6045904;23;20007;-96
2022/12/07 13:53:01;;;;;;;9.63;3.92;;;;;;;3.92;80.43;101004.78;6071386;23;20006;-96
2022/12/07 13:55:28;;;;;;;9.07;3.72;;;;;;;3.99;81.50;101011.44;6068614;23;20263;-95
2022/12/07 13:57:55;;;;;;;12.63;4.22;;;;;;;4.14;80.82;101028.16;6045577;23;20003;-94
2022/12/07 14:00:26;;;;;;;8.02;3.63;;;;;;;3.97;81.35;101014.91;6043702;23;20465;-93
2022/12/07 14:03:04;;;;;;;9.57;3.70;;;;;;;3.95;82.42;101003.88;6044627;23;20009;-93
2022/12/07 14:05:32;;;;;;;9.68;3.70;;;;;;;4.11;81.51;101010.34;6069425;23;20007;-93
2022/12/07 14:08:03;;;;;;;11.27;4.40;;;;;;;3.80;81.58;100969.28;6045521;23;20426;-92
2022/12/07 14:10:39;;;;;;;11.75;4.88;;;;;;;3.91;83.13;101012.50;6067829;23;20007;-95
2022/12/07 14:13:27;;;;;;;8.40;3.13;;;;;;;3.82;82.61;100983.69;6044498;23;20342;-94
2022/12/07 14:15:53;;;;;;;8.93;3.60;;;;;;;3.83;83.23;101003.28;6061493;23;20090;-94
2022/12/07 14:18:39;;;;;;;8.80;3.70;;;;;;;3.70;82.61;100967.81;6046198;23;20397;-96
2022/12/07 14:21:18;;;;;;;8.32;3.33;;;;;;;3.65;83.11;100961.06;6070233;23;20003;-94
2022/12/07 14:24:08;;;;;;;8.85;4.20;;;;;;;3.65;82.73;100955.13;6071731;23;20054;-95
2022/12/07 14:26:41;;;;;;;12.30;3.55;;;;;;;3.77;83.57;100975.31;6073418;23;20017;-95
2022/12/07 14:29:24;;;;;;;4.97;2.88;;;;;;;3.87;83.44;100986.16;6072593;23;20007;-94
2022/12/07 14:31:51;;;;;;;10.38;3.90;;;;;;;3.73;83.76;100963.50;6047120;23;20010;-93
2022/12/07 14:34:20;;;;;;;9.35;4.35;;;;;;;3.52;85.01;100952.00;6070323;23;20003;-94
2022/12/07 14:37:05;;;;;;;7.75;3.70;;;;;;;3.65;84.08;100975.56;6071178;23;20026;-94
2022/12/07 14:39:57;;;;;;;6.05;2.88;;;;;;;3.40;84.76;100942.03;6049500;23;20042;-96
2022/12/07 14:42:39;;;;;;;11.50;3.08;;;;;;;3.39;83.80;100948.84;6073263;23;20014;-95
2022/12/07 15:48:41;;;;;;;;;;;;;;;;;;;;;
2022/12/07 15:58:44;;;;;;;;;;;;;;;;;;;;;
2022/12/07 16:01:23;;;;;;;8.23;3.88;;;;;;;0.71;100.00;100910.28;6048804;23;20043;-95
2022/12/07 16:03:51;;;;;;;10.88;5.25;;;;;;;0.79;100.00;100930.53;6047042;23;20045;-95
2022/12/07 16:06:54;;;;;;;13.73;4.63;;;;;;;0.75;100.00;100928.84;6111502;23;20016;-95
2022/12/07 16:09:29;;;;;;;8.32;4.25;;;;;;;0.52;100.00;100914.66;6139449;23;20062;-96
2022/12/07 16:12:00;;;;;;;15.50;4.68;;;;;;;0.16;100.00;100892.94;6143308;23;20021;-95
2022/12/07 16:14:34;;;;;;;13.13;5.03;;;;;;;0.04;100.00;100911.63;6117464;23;20010;-96
2022/12/07 16:20:06;;;;;;;11.63;5.00;;;;;;;-0.38;100.00;100887.38;6131966;23;20010;-96
2022/12/07 16:22:54;;;;;;;8.88;4.82;;;;;;;-0.53;100.00;100888.28;6109763;23;20429;-96
2022/12/07 16:25:19;;;;;;;15.00;5.82;;;;;;;-0.56;100.00;100893.34;6132075;23;20025;-95
2022/12/07 16:27:48;;;;;;;11.18;6.60;;;;;;;-0.72;100.00;100897.66;6117132;23;20021;-94
2022/12/07 16:39:10;;;;;;;12.10;5.35;;;;;;;-1.19;100.00;100896.09;6106652;23;20022;-93
2022/12/07 16:41:41;;;;;;;12.88;6.20;;;;;;;-1.32;100.00;100877.53;6087514;23;20030;-95
2022/12/07 16:44:28;;;;;;;13.38;6.55;;;;;;;-1.09;100.00;100877.50;6116173;23;20006;-95
2022/12/07 16:46:53;;;;;;;17.65;5.15;;;;;;;-1.04;100.00;100870.72;6086922;23;20010;-94
2022/12/07 16:49:58;;;;;;;;;;;;;;;;;;;;;
2022/12/07 16:52:31;;;;;;;14.85;5.03;;;;;;;-0.94;100.00;100892.66;6097092;23;20011;-95
2022/12/07 16:55:05;;;;;;;15.18;4.65;;;;;;;-0.97;100.00;100869.88;6089982;23;20002;-96
2022/12/07 17:00:25;;;;;;;;;;;;;;;;;;;;;
2022/12/07 17:08:13;;;;;;;13.30;4.30;;;;;;;-1.70;100.00;100852.28;6113367;23;20022;-96
2022/12/07 17:10:48;;;;;;;10.77;4.25;;;;;;;-1.66;100.00;100853.94;6110420;23;20014;-96
2022/12/07 17:16:05;;;;;;;13.43;4.75;;;;;;;-1.71;100.00;100841.28;6129817;23;20013;-95
2022/12/07 17:18:34;;;;;;;11.70;4.40;;;;;;;-1.65;100.00;100860.72;6107053;23;20036;-94
2022/12/07 17:21:28;;;;;;;8.93;6.18;;;;;;;-1.74;100.00;100856.47;6111021;23;20010;-95
2022/12/07 17:24:05;;;;;;;11.73;5.30;;;;;;;-1.71;100.00;100866.59;6110339;23;20008;-95
2022/12/07 17:29:17;;;;;;;10.27;4.95;;;;;;;-1.84;100.00;100835.41;6149969;23;20018;-96
2022/12/07 20:16:03;;;;;;;;;;;;;;;;;;;;;
2022/12/07 20:18:49;;;;;;;11.32;5.88;;;;;;;-2.60;100.00;100756.13;6138094;23;20040;-95
2022/12/07 20:21:57;;;;;;;10.20;6.28;;;;;;;-2.81;100.00;100723.25;6089128;23;20045;-96
2022/12/07 20:29:49;;;;;;;19.13;6.82;;;;;;;-2.99;100.00;100719.00;6134717;23;20377;-94
2022/12/07 20:32:15;;;;;;;14.45;6.95;;;;;;;-2.95;100.00;100735.84;6105682;23;20137;-95
2022/12/07 20:34:47;;;;;;;12.25;6.30;;;;;;;-2.91;100.00;100739.22;6110121;23;20002;-94
2022/12/07 20:37:48;;;;;;;12.73;5.88;;;;;;;-3.08;100.00;100722.34;6119121;23;20014;-96
2022/12/07 20:40:14;;;;;;;14.93;7.22;;;;;;;-2.90;100.00;100751.88;6046231;23;20101;-92
2022/12/07 20:42:42;;;;;;;15.18;6.70;;;;;;;-3.11;100.00;100722.34;6103728;23;19998;-94
2022/12/07 20:45:09;;;;;;;11.50;6.55;;;;;;;-3.03;100.00;100729.94;6104415;23;20078;-94
2022/12/07 20:47:35;;;;;;;11.52;6.63;;;;;;;-3.19;100.00;100708.84;6091315;23;20013;-94
2022/12/07 20:50:03;;;;;;;17.85;7.13;;;;;;;-3.30;100.00;100698.72;6133408;23;20021;-95
2022/12/07 20:52:29;;;;;;;17.25;8.25;;;;;;;-3.51;100.00;100691.03;6132567;23;20010;-94
2022/12/07 20:54:54;;;;;;;13.15;8.10;;;;;;;-3.39;100.00;100718.00;6131183;23;20017;-94
2022/12/07 20:57:20;;;;;;;16.92;8.82;;;;;;;-3.54;100.00;100699.44;6133405;23;20385;-94
2022/12/07 20:59:45;;;;;;;14.95;8.07;;;;;;;-3.63;100.00;100701.94;6133406;23;20516;-94
2022/12/07 21:02:12;;;;;;;13.23;7.70;;;;;;;-3.43;100.00;100727.28;6133583;23;20436;-92
2022/12/07 21:04:39;;;;;;;15.38;8.27;;;;;;;-3.81;100.00;100681.66;6131713;23;20023;-93
2022/12/07 21:07:05;;;;;;;17.30;9.35;;;;;;;-3.68;100.00;100718.75;6132006;23;20005;-93
2022/12/07 21:09:30;;;;;;;12.88;8.57;;;;;;;-3.85;100.00;100700.13;6130913;23;20336;-92
2022/12/07 21:11:56;;;;;;;17.95;9.82;;;;;;;-3.90;100.00;100693.41;6130317;23;20033;-94
2022/12/07 21:14:22;;;;;;;19.38;11.02;;;;;;;-3.89;100.00;100695.06;6129445;23;20001;-93
2022/12/07 21:16:47;;;;;;;26.35;12.80;;;;;;;-3.96;100.00;100698.41;6129117;23;20029;-94
2022/12/07 21:19:13;;;;;;;23.80;12.73;;;;;;;-4.04;100.00;100689.13;6130308;23;20013;-93
2022/12/07 21:21:39;;;;;;;18.00;11.52;;;;;;;-3.99;100.00;100698.38;6130723;23;20001;-94
2022/12/07 21:24:06;;;;;;;21.58;11.45;;;;;;;-4.12;100.00;100679.81;6131511;23;20029;-93
2022/12/07 21:26:34;;;;;;;20.02;10.80;;;;;;;-4.10;100.00;100684.84;6133063;23;20392;-94
2022/12/07 21:29:01;;;;;;;17.17;9.98;;;;;;;-4.03;100.00;100688.28;6133196;23;20376;-93
2022/12/07 21:31:26;;;;;;;19.08;8.55;;;;;;;-3.93;100.00;100708.50;6135615;23;20502;-93
2022/12/07 21:33:52;;;;;;;18.50;8.80;;;;;;;-3.90;100.00;100708.53;6160911;23;20009;-94
2022/12/07 21:36:20;;;;;;;12.40;8.45;;;;;;;-3.99;100.00;100690.81;6135973;23;20005;-94
2022/12/07 21:38:46;;;;;;;19.85;8.98;;;;;;;-4.01;100.00;100674.84;6134051;23;20057;-95
2022/12/07 21:41:26;;;;;;;12.75;7.38;;;;;;;-4.02;100.00;100663.06;6134570;23;20085;-93
2022/12/07 21:43:52;;;;;;;20.45;8.65;;;;;;;-3.96;100.00;100668.13;6137826;23;20008;-94
2022/12/07 21:46:23;;;;;;;20.85;9.15;;;;;;;-3.84;100.00;100667.38;6139664;23;20009;-96
2022/12/07 21:48:53;;;;;;;17.38;8.50;;;;;;;-3.49;100.00;100700.34;6159750;23;20088;-94
2022/12/07 21:51:20;;;;;;;25.08;8.23;;;;;;;-3.46;100.00;100695.28;6133765;23;19997;-94
2022/12/07 21:53:47;;;;;;;21.73;10.20;;;;;;;-3.54;100.00;100669.16;6132916;23;20037;-93
2022/12/07 21:56:18;;;;;;;14.35;7.75;;;;;;;-3.17;100.00;100692.03;6133601;23;20005;-93
2022/12/07 21:58:45;;;;;;;14.50;8.80;;;;;;;-3.16;100.00;100688.66;6132542;23;20091;-93
2022/12/07 22:01:39;;;;;;;14.60;7.82;;;;;;;-3.25;100.00;100670.97;6131305;23;20006;-93
2022/12/07 22:04:06;;;;;;;21.20;9.68;;;;;;;-3.02;100.00;100656.72;6130537;23;20002;-93
2022/12/07 22:06:34;;;;;;;15.50;8.50;;;;;;;-2.99;100.00;100644.94;6131310;23;20010;-93
2022/12/07 22:08:59;;;;;;;19.38;9.82;;;;;;;-2.80;100.00;100669.38;6131139;23;20005;-94
2022/12/07 22:11:25;;;;;;;16.33;9.50;;;;;;;-2.99;100.00;100639.88;6132318;23;20428;-94
2022/12/07 22:16:34;;;;;;;26.60;11.55;;;;;;;-2.68;100.00;100660.94;6157260;23;20328;-93
2022/12/07 22:19:00;;;;;;;24.92;11.30;;;;;;;-2.75;100.00;100665.16;6131154;23;20010;-93
2022/12/07 22:21:26;;;;;;;26.98;10.80;;;;;;;-2.85;100.00;100658.44;6131569;23;20040;-93
2022/12/07 22:23:51;;;;;;;23.63;11.63;;;;;;;-3.07;100.00;100633.16;6131381;23;20013;-93
2022/12/07 22:26:18;;;;;;;19.83;9.45;;;;;;;-3.07;100.00;100627.25;6129601;23;20309;-92
2022/12/07 22:28:44;;;;;;;23.92;11.73;;;;;;;-3.28;100.00;100633.09;6130456;23;20040;-92
2022/12/07 22:31:13;;;;;;;21.33;12.63;;;;;;;-3.51;100.00;100616.22;6131954;23;20424;-93
2022/12/07 22:33:40;;;;;;;18.65;11.00;;;;;;;-3.34;100.00;100660.81;6132050;23;20033;-93
2022/12/07 22:36:08;;;;;;;23.15;11.50;;;;;;;-3.68;100.00;100606.06;6131570;23;20032;-93
2022/12/07 22:38:35;;;;;;;21.48;10.85;;;;;;;-3.52;100.00;100619.56;6132423;23;20036;-93
2022/12/07 22:41:08;;;;;;;20.05;10.43;;;;;;;-3.30;100.00;100649.91;6131923;23;20107;-92
2022/12/07 22:43:34;;;;;;;26.75;12.93;;;;;;;-3.39;100.00;100633.09;6131917;23;20013;-93
2022/12/07 22:46:00;;;;;;;19.35;11.02;;;;;;;-3.16;100.00;100647.44;6130880;23;20017;-93
2022/12/07 22:48:26;;;;;;;18.23;9.65;;;;;;;-3.32;100.00;100619.63;6131856;23;20093;-92
2022/12/07 22:50:53;;;;;;;18.73;9.93;;;;;;;-3.33;100.00;100622.16;6131714;23;20001;-92
2022/12/07 22:53:20;;;;;;;21.58;10.70;;;;;;;-3.43;100.00;100607.84;6130318;23;20010;-94
2022/12/07 22:55:46;;;;;;;25.75;10.27;;;;;;;-3.22;100.00;100633.09;6131748;23;20012;-92
2022/12/07 22:58:12;;;;;;;29.17;11.90;;;;;;;-3.20;100.00;100628.91;6132123;23;20006;-94
2022/12/07 23:00:37;;;;;;;22.45;10.38;;;;;;;-3.40;100.00;100607.84;6132826;23;20218;-93
2022/12/07 23:03:03;;;;;;;34.72;18.63;;;;;;;-3.51;100.00;100601.09;6130822;23;20006;-93
2022/12/07 23:05:28;;;;;;;46.78;22.17;;;;;;;-3.55;100.00;100629.66;6130363;23;20009;-94
2022/12/07 23:07:54;;;;;;;50.78;23.88;;;;;;;-3.56;100.00;100627.97;6130931;23;20492;-93
2022/12/07 23:10:20;;;;;;;51.75;23.13;;;;;;;-3.82;100.00;100600.13;6157813;23;20482;-92
2022/12/07 23:15:33;;;;;;;43.22;19.27;;;;;;;-3.76;100.00;100624.53;6158404;23;20328;-91
2022/12/07 23:17:58;;;;;;;39.20;19.45;;;;;;;-4.05;100.00;100584.91;6134374;23;20185;-94
2022/12/07 23:20:24;;;;;;;40.60;18.75;;;;;;;-3.95;100.00;100601.78;6132443;23;20542;-95
2022/12/07 23:22:49;;;;;;;37.75;17.70;;;;;;;-3.95;100.00;100599.25;6158628;23;20025;-94
2022/12/07 23:25:15;;;;;;;45.28;18.45;;;;;;;-4.17;100.00;100568.06;6132275;23;20009;-93
2022/12/07 23:27:40;;;;;;;36.63;15.70;;;;;;;-4.11;100.00;100567.25;6131449;23;20428;-92
2022/12/07 23:30:06;;;;;;;37.60;18.98;;;;;;;-4.09;100.00;100579.00;6130323;23;20085;-92
2022/12/07 23:32:32;;;;;;;30.60;15.85;;;;;;;-3.99;100.00;100592.50;6156005;23;20436;-92
2022/12/07 23:34:57;;;;;;;24.50;13.32;;;;;;;-4.15;100.00;100555.44;6129200;23;20052;-91
2022/12/07 23:37:23;;;;;;;24.35;12.85;;;;;;;-4.08;100.00;100579.84;6129986;23;20024;-93
2022/12/07 23:39:48;;;;;;;25.00;11.93;;;;;;;-4.30;100.00;100552.00;6129872;23;20447;-92
2022/12/07 23:42:14;;;;;;;22.10;11.57;;;;;;;-4.16;100.00;100573.94;6129554;23;20010;-92
2022/12/07 23:44:39;;;;;;;29.83;13.00;;;;;;;-4.16;100.00;100579.81;6130707;23;20005;-93
2022/12/07 23:47:05;;;;;;;18.67;11.15;;;;;;;-4.24;100.00;100573.03;6132668;23;20036;-94
2022/12/07 23:49:30;;;;;;;22.55;11.73;;;;;;;-4.33;100.00;100572.16;6133085;23;20001;-93
2022/12/07 23:51:56;;;;;;;25.20;13.20;;;;;;;-4.45;100.00;100551.94;6133669;23;20036;-94
2022/12/07 23:54:21;;;;;;;21.63;11.02;;;;;;;-4.44;100.00;100553.63;6132642;23;20006;-93
2022/12/07 23:56:47;;;;;;;8.52;4.97;;;;;;;-4.06;100.00;100565.56;6133006;23;20314;-93
2022/12/07 23:59:12;;;;;;;9.00;4.57;;;;;;;-3.87;100.00;100554.72;6131062;23;20005;-94
